Houseimaru N0.18 — JD3769 — position and weather

sailwx.info

Track history (hours):
 
Tides and Currents Weather Stations Pressure Air Temp Water Temp Dewpoint Dewpoint Depression Visibility Wind Speed Wind Dir Waves Ship Positions

Houseimaru N0.18

Last reported at 2017-Nov-18 08:22 UTC. Time now 2017-Nov-22 01:53 UTC.
Position N 34°37' E 135°01'.

Length 63 m; draft 4 m.

Type: Tanker. MMSI: 431006012.

Date/timePositionNaut miles runAvg speedWind from/ knotsBaromVisibWave heightAir tempDewpointWater temp
2017-Nov-18 08:22N 34°37' E 135°01'410.3
2017-Nov-18 08:00N 34°37' E 135°06'3 6.0
2017-Nov-18 07:30N 34°39' E 135°08'0 0.0
2017-Nov-18 07:00N 34°39' E 135°08'0 0.0
2017-Nov-18 06:30N 34°39' E 135°08'0 0.0
2017-Nov-18 06:00N 34°39' E 135°08'0 0.0
2017-Nov-18 05:30N 34°39' E 135°08'0 0.0
2017-Nov-18 05:00N 34°39' E 135°08'1 1.3
2017-Nov-18 04:30N 34°38' E 135°09'0 0.7
2017-Nov-18 04:00N 34°38' E 135°08'0 0.0
2017-Nov-18 03:30N 34°38' E 135°08'0 0.0
2017-Nov-18 03:00N 34°38' E 135°08'0 0.0
2017-Nov-18 02:30N 34°38' E 135°08'0 0.0
2017-Nov-18 02:00N 34°38' E 135°08'1 1.9
2017-Nov-18 01:30N 34°37' E 135°08'6 8.1
2017-Nov-18 00:48N 34°37' E 135°01'  
2017-Nov-15 03:00N 34°37' E 134°59'4 7.4
2017-Nov-15 02:30N 34°36' E 135°03'4 8.8
2017-Nov-15 02:00N 34°38' E 135°08'1 1.4
2017-Nov-15 01:30N 34°39' E 135°08'0 0.0
2017-Nov-15 01:00N 34°39' E 135°08'0 0.0
2017-Nov-15 00:30N 34°39' E 135°08'0 0.8
2017-Nov-15 00:00N 34°38' E 135°08'0 1.0
2017-Nov-14 23:30N 34°38' E 135°08'0 0.0
2017-Nov-14 23:00N 34°38' E 135°08'0 0.0
2017-Nov-14 22:30N 34°38' E 135°08'0 0.0
2017-Nov-14 22:00N 34°38' E 135°08'0 0.0
2017-Nov-14 21:29N 34°38' E 135°08'0 0.0
2017-Nov-14 21:00N 34°38' E 135°08'0 0.0
2017-Nov-14 20:30N 34°38' E 135°08'0 0.0
2017-Nov-14 19:59N 34°38' E 135°08'0 0.0
2017-Nov-14 19:27N 34°38' E 135°08'0 0.0
2017-Nov-14 19:00N 34°38' E 135°08'0 0.0
2017-Nov-14 18:29N 34°38' E 135°08'0 0.1
2017-Nov-14 18:00N 34°38' E 135°08'0 0.0
2017-Nov-14 17:30N 34°38' E 135°08'0 0.0
2017-Nov-14 17:00N 34°38' E 135°08'0 0.0
2017-Nov-14 16:30N 34°38' E 135°08'0 0.0
2017-Nov-14 16:00N 34°38' E 135°08'0 0.0
2017-Nov-14 15:30N 34°38' E 135°08'0 0.0
2017-Nov-14 15:00N 34°38' E 135°08'0 0.0
2017-Nov-14 14:30N 34°38' E 135°08'0 0.0
2017-Nov-14 14:00N 34°38' E 135°08'0 0.0
2017-Nov-14 13:30N 34°38' E 135°08'0 0.0
2017-Nov-14 13:00N 34°38' E 135°08'0 0.1
2017-Nov-14 12:29N 34°38' E 135°08'0 0.0
2017-Nov-14 11:59N 34°38' E 135°08'0 0.0
2017-Nov-14 11:30N 34°38' E 135°08'0 0.0
2017-Nov-14 11:00N 34°38' E 135°08'0 0.0
2017-Nov-14 10:30N 34°38' E 135°08'0 0.0
2017-Nov-14 10:00N 34°38' E 135°08'0 0.0
2017-Nov-14 09:30N 34°38' E 135°08'0 0.0
2017-Nov-14 09:00N 34°38' E 135°08'0 0.0
2017-Nov-14 08:30N 34°38' E 135°08'0 0.0
2017-Nov-14 08:00N 34°38' E 135°08'0 0.0
2017-Nov-14 07:30N 34°38' E 135°08'0 0.0
2017-Nov-14 07:00N 34°38' E 135°08'0 0.0
2017-Nov-14 06:30N 34°38' E 135°08'0 0.0
2017-Nov-14 06:00N 34°38' E 135°08'0 0.0
2017-Nov-14 05:30N 34°38' E 135°08'3 6.2
2017-Nov-14 05:00N 34°35' E 135°08'611.3
2017-Nov-14 04:30N 34°29' E 135°06'511.2
2017-Nov-14 04:00N 34°24' E 135°05'810.5
2017-Nov-14 03:15N 34°16' E 135°03'310.7
2017-Nov-14 03:01N 34°14' E 135°04'611.3
2017-Nov-14 02:30N 34°09' E 135°09'3 5.2
2017-Nov-14 02:01N 34°09' E 135°12'0 0.0
2017-Nov-14 01:31N 34°09' E 135°12'0 0.0
2017-Nov-14 01:01N 34°09' E 135°12'0 0.0
2017-Nov-14 00:29N 34°09' E 135°12'4 6.9
2017-Nov-13 23:56N 34°10' E 135°08'2 5.4
2017-Nov-13 23:30N 34°13' E 135°09'0 0.1
2017-Nov-13 23:01N 34°13' E 135°09'0 0.0
2017-Nov-13 22:31N 34°13' E 135°09'0 0.0
2017-Nov-13 22:01N 34°13' E 135°09'222 4.9
2017-Nov-12 01:01N 35°02' E 139°32'011.5
2017-Nov-12 00:59N 35°03' E 139°32'611.7
2017-Nov-12 00:28N 35°06' E 139°39'511.9
2017-Nov-12 00:00N 35°09' E 139°44'611.5
2017-Nov-11 23:30N 35°15' E 139°46'611.5
2017-Nov-11 23:00N 35°20' E 139°43'611.2
2017-Nov-11 22:31N 35°25' E 139°43'4 8.0
2017-Nov-11 22:00N 35°29' E 139°42'0 0.1
2017-Nov-11 21:30N 35°29' E 139°42'0 0.0
2017-Nov-11 21:00N 35°29' E 139°42'0 0.0
2017-Nov-11 20:31N 35°29' E 139°42'0 0.0
2017-Nov-11 20:01N 35°29' E 139°42'0 0.0
2017-Nov-11 19:30N 35°29' E 139°42'0 0.0
2017-Nov-11 19:00N 35°29' E 139°42'0 0.0
2017-Nov-11 18:31N 35°29' E 139°42'0 0.0
2017-Nov-11 18:00N 35°29' E 139°42'0 0.0
2017-Nov-11 17:30N 35°29' E 139°42'0 0.0
2017-Nov-11 17:00N 35°29' E 139°42'0 0.0
2017-Nov-11 16:30N 35°29' E 139°42'0 0.0
2017-Nov-11 16:00N 35°29' E 139°42'0 0.0
2017-Nov-11 15:30N 35°29' E 139°42'0 0.0
2017-Nov-11 15:00N 35°29' E 139°42'0 0.0
2017-Nov-11 14:30N 35°29' E 139°42'0 0.0
2017-Nov-11 14:00N 35°29' E 139°42'0 0.0
2017-Nov-11 13:30N 35°29' E 139°42'0 0.0
2017-Nov-11 13:01N 35°29' E 139°42'0 0.0
2017-Nov-11 12:30N 35°29' E 139°42'0 0.0
2017-Nov-11 12:01N 35°29' E 139°42'0 0.0
2017-Nov-11 11:30N 35°29' E 139°42'0 0.0
2017-Nov-11 11:01N 35°29' E 139°42'0 0.0
2017-Nov-11 10:30N 35°29' E 139°42'0 0.0
2017-Nov-11 10:00N 35°29' E 139°42'0 0.0
2017-Nov-11 09:30N 35°29' E 139°42'0 0.0
2017-Nov-11 09:00N 35°29' E 139°42'0 0.0
2017-Nov-11 08:31N 35°29' E 139°42'0 0.0
2017-Nov-11 08:00N 35°29' E 139°42'0 0.0
2017-Nov-11 07:31N 35°29' E 139°42'0 0.0
2017-Nov-11 07:00N 35°29' E 139°42'0 0.0
2017-Nov-11 06:30N 35°29' E 139°42'0 0.0
2017-Nov-11 06:00N 35°29' E 139°42'0 0.0
2017-Nov-11 05:30N 35°29' E 139°42'0 0.0
2017-Nov-11 05:00N 35°29' E 139°42'0 0.0
2017-Nov-11 04:30N 35°29' E 139°42'0 0.0
2017-Nov-11 04:00N 35°29' E 139°42'0 0.0
2017-Nov-11 03:31N 35°29' E 139°42'0 0.0
2017-Nov-11 03:00N 35°29' E 139°42'0 0.0
2017-Nov-11 02:31N 35°29' E 139°42'0 0.0
2017-Nov-11 02:00N 35°29' E 139°42'0 0.0
2017-Nov-11 01:30N 35°29' E 139°42'0 0.0
2017-Nov-11 01:00N 35°29' E 139°42'0 0.0
2017-Nov-11 00:30N 35°29' E 139°42'0 0.0
2017-Nov-11 00:00N 35°29' E 139°42'0 0.0
2017-Nov-10 23:30N 35°29' E 139°42'0 0.0
2017-Nov-10 23:01N 35°29' E 139°42'0 0.0
2017-Nov-10 22:30N 35°29' E 139°42'0 0.0
2017-Nov-10 22:01N 35°29' E 139°42'0 0.0
2017-Nov-10 21:30N 35°29' E 139°42'0 0.0
2017-Nov-10 21:00N 35°29' E 139°42'0 0.0
2017-Nov-10 20:30N 35°29' E 139°42'0 0.0
2017-Nov-10 20:00N 35°29' E 139°42'0 0.0
2017-Nov-10 19:30N 35°29' E 139°42'0 0.0
2017-Nov-10 19:01N 35°29' E 139°42'0 0.0
2017-Nov-10 18:30N 35°29' E 139°42'0 0.0
2017-Nov-10 18:01N 35°29' E 139°42'0 0.0
2017-Nov-10 17:30N 35°29' E 139°42'0 0.0
2017-Nov-10 17:00N 35°29' E 139°42'0 0.0
2017-Nov-10 16:30N 35°29' E 139°42'0 0.0
2017-Nov-10 16:00N 35°29' E 139°42'0 0.0
2017-Nov-10 15:30N 35°29' E 139°42'0 0.0
2017-Nov-10 15:00N 35°29' E 139°42'0 0.0
2017-Nov-10 14:31N 35°29' E 139°42'0 0.0
2017-Nov-10 14:00N 35°29' E 139°42'0 0.0
2017-Nov-10 13:30N 35°29' E 139°42'0 0.0
2017-Nov-10 13:00N 35°29' E 139°42'0 0.0
2017-Nov-10 12:30N 35°29' E 139°42'0 0.0
2017-Nov-10 12:01N 35°29' E 139°42'0 0.0
2017-Nov-10 11:30N 35°29' E 139°42'0 0.0
2017-Nov-10 11:00N 35°29' E 139°42'0 0.0
2017-Nov-10 10:30N 35°29' E 139°42'0 0.0
2017-Nov-10 10:01N 35°29' E 139°42'0 0.0
2017-Nov-10 09:30N 35°29' E 139°42'0 0.0
2017-Nov-10 09:00N 35°29' E 139°42'0 0.0
2017-Nov-10 08:30N 35°29' E 139°42'0 0.0
2017-Nov-10 08:01N 35°29' E 139°42'0 0.0
2017-Nov-10 07:30N 35°29' E 139°42'2 4.2
2017-Nov-10 07:00N 35°27' E 139°43'4 8.3
2017-Nov-10 06:30N 35°24' E 139°40'1 2.9
2017-Nov-10 06:01N 35°25' E 139°38'0 0.0
2017-Nov-10 05:30N 35°25' E 139°38'0 0.0
2017-Nov-10 05:00N 35°25' E 139°38'0 0.0
2017-Nov-10 04:31N 35°25' E 139°38'0 0.7
2017-Nov-10 04:01N 35°25' E 139°39'2 4.3
2017-Nov-10 03:31N 35°23' E 139°40'0 0.0
2017-Nov-10 03:00N 35°23' E 139°40'3 5.5
2017-Nov-10 02:30N 35°25' E 139°42'4 8.3
2017-Nov-10 02:00N 35°29' E 139°40'0 0.0
2017-Nov-10 01:30N 35°29' E 139°40'0 0.0
2017-Nov-10 01:00N 35°29' E 139°40'0 0.0
2017-Nov-10 00:30N 35°29' E 139°40'0 0.0
2017-Nov-10 00:00N 35°29' E 139°40'0 0.0
2017-Nov-09 23:31N 35°29' E 139°40'3 6.6
2017-Nov-09 23:00N 35°26' E 139°43'510.8
2017-Nov-09 22:30N 35°21' E 139°43'611.7
2017-Nov-09 22:00N 35°16' E 139°46'  
Track history (hours):
 
Tides and Currents Weather Stations Pressure Air Temp Water Temp Dewpoint Dewpoint Depression Visibility Wind Speed Wind Dir Waves Ship Positions

Houseimaru N0.18

Last reported at 2017-Nov-18 08:22 UTC. Time now 2017-Nov-22 01:53 UTC.
Position N 34°37' E 135°01'.

Length 63 m; draft 4 m.

Type: Tanker. MMSI: 431006012.

Date/timePositionNaut miles runAvg speedWind from/ knotsBaromVisibWave heightAir tempDewpointWater temp
2017-Nov-18 08:22N 34°37' E 135°01'410.3
2017-Nov-18 08:00N 34°37' E 135°06'3 6.0
2017-Nov-18 07:30N 34°39' E 135°08'0 0.0
2017-Nov-18 07:00N 34°39' E 135°08'0 0.0
2017-Nov-18 06:30N 34°39' E 135°08'0 0.0
2017-Nov-18 06:00N 34°39' E 135°08'0 0.0
2017-Nov-18 05:30N 34°39' E 135°08'0 0.0
2017-Nov-18 05:00N 34°39' E 135°08'1 1.3
2017-Nov-18 04:30N 34°38' E 135°09'0 0.7
2017-Nov-18 04:00N 34°38' E 135°08'0 0.0
2017-Nov-18 03:30N 34°38' E 135°08'0 0.0
2017-Nov-18 03:00N 34°38' E 135°08'0 0.0
2017-Nov-18 02:30N 34°38' E 135°08'0 0.0
2017-Nov-18 02:00N 34°38' E 135°08'1 1.9
2017-Nov-18 01:30N 34°37' E 135°08'6 8.1
2017-Nov-18 00:48N 34°37' E 135°01'  
2017-Nov-15 03:00N 34°37' E 134°59'4 7.4
2017-Nov-15 02:30N 34°36' E 135°03'4 8.8
2017-Nov-15 02:00N 34°38' E 135°08'1 1.4
2017-Nov-15 01:30N 34°39' E 135°08'0 0.0
2017-Nov-15 01:00N 34°39' E 135°08'0 0.0
2017-Nov-15 00:30N 34°39' E 135°08'0 0.8
2017-Nov-15 00:00N 34°38' E 135°08'0 1.0
2017-Nov-14 23:30N 34°38' E 135°08'0 0.0
2017-Nov-14 23:00N 34°38' E 135°08'0 0.0
2017-Nov-14 22:30N 34°38' E 135°08'0 0.0
2017-Nov-14 22:00N 34°38' E 135°08'0 0.0
2017-Nov-14 21:29N 34°38' E 135°08'0 0.0
2017-Nov-14 21:00N 34°38' E 135°08'0 0.0
2017-Nov-14 20:30N 34°38' E 135°08'0 0.0
2017-Nov-14 19:59N 34°38' E 135°08'0 0.0
2017-Nov-14 19:27N 34°38' E 135°08'0 0.0
2017-Nov-14 19:00N 34°38' E 135°08'0 0.0
2017-Nov-14 18:29N 34°38' E 135°08'0 0.1
2017-Nov-14 18:00N 34°38' E 135°08'0 0.0
2017-Nov-14 17:30N 34°38' E 135°08'0 0.0
2017-Nov-14 17:00N 34°38' E 135°08'0 0.0
2017-Nov-14 16:30N 34°38' E 135°08'0 0.0
2017-Nov-14 16:00N 34°38' E 135°08'0 0.0
2017-Nov-14 15:30N 34°38' E 135°08'0 0.0
2017-Nov-14 15:00N 34°38' E 135°08'0 0.0
2017-Nov-14 14:30N 34°38' E 135°08'0 0.0
2017-Nov-14 14:00N 34°38' E 135°08'0 0.0
2017-Nov-14 13:30N 34°38' E 135°08'0 0.0
2017-Nov-14 13:00N 34°38' E 135°08'0 0.1
2017-Nov-14 12:29N 34°38' E 135°08'0 0.0
2017-Nov-14 11:59N 34°38' E 135°08'0 0.0
2017-Nov-14 11:30N 34°38' E 135°08'0 0.0
2017-Nov-14 11:00N 34°38' E 135°08'0 0.0
2017-Nov-14 10:30N 34°38' E 135°08'0 0.0
2017-Nov-14 10:00N 34°38' E 135°08'0 0.0
2017-Nov-14 09:30N 34°38' E 135°08'0 0.0
2017-Nov-14 09:00N 34°38' E 135°08'0 0.0
2017-Nov-14 08:30N 34°38' E 135°08'0 0.0
2017-Nov-14 08:00N 34°38' E 135°08'0 0.0
2017-Nov-14 07:30N 34°38' E 135°08'0 0.0
2017-Nov-14 07:00N 34°38' E 135°08'0 0.0
2017-Nov-14 06:30N 34°38' E 135°08'0 0.0
2017-Nov-14 06:00N 34°38' E 135°08'0 0.0
2017-Nov-14 05:30N 34°38' E 135°08'3 6.2
2017-Nov-14 05:00N 34°35' E 135°08'611.3
2017-Nov-14 04:30N 34°29' E 135°06'511.2
2017-Nov-14 04:00N 34°24' E 135°05'810.5
2017-Nov-14 03:15N 34°16' E 135°03'310.7
2017-Nov-14 03:01N 34°14' E 135°04'611.3
2017-Nov-14 02:30N 34°09' E 135°09'3 5.2
2017-Nov-14 02:01N 34°09' E 135°12'0 0.0
2017-Nov-14 01:31N 34°09' E 135°12'0 0.0
2017-Nov-14 01:01N 34°09' E 135°12'0 0.0
2017-Nov-14 00:29N 34°09' E 135°12'4 6.9
2017-Nov-13 23:56N 34°10' E 135°08'2 5.4
2017-Nov-13 23:30N 34°13' E 135°09'0 0.1
2017-Nov-13 23:01N 34°13' E 135°09'0 0.0
2017-Nov-13 22:31N 34°13' E 135°09'0 0.0
2017-Nov-13 22:01N 34°13' E 135°09'222 4.9
2017-Nov-12 01:01N 35°02' E 139°32'011.5
2017-Nov-12 00:59N 35°03' E 139°32'611.7
2017-Nov-12 00:28N 35°06' E 139°39'511.9
2017-Nov-12 00:00N 35°09' E 139°44'611.5
2017-Nov-11 23:30N 35°15' E 139°46'611.5
2017-Nov-11 23:00N 35°20' E 139°43'611.2
2017-Nov-11 22:31N 35°25' E 139°43'4 8.0
2017-Nov-11 22:00N 35°29' E 139°42'0 0.1
2017-Nov-11 21:30N 35°29' E 139°42'0 0.0
2017-Nov-11 21:00N 35°29' E 139°42'0 0.0
2017-Nov-11 20:31N 35°29' E 139°42'0 0.0
2017-Nov-11 20:01N 35°29' E 139°42'0 0.0
2017-Nov-11 19:30N 35°29' E 139°42'0 0.0
2017-Nov-11 19:00N 35°29' E 139°42'0 0.0
2017-Nov-11 18:31N 35°29' E 139°42'0 0.0
2017-Nov-11 18:00N 35°29' E 139°42'0 0.0
2017-Nov-11 17:30N 35°29' E 139°42'0 0.0
2017-Nov-11 17:00N 35°29' E 139°42'0 0.0
2017-Nov-11 16:30N 35°29' E 139°42'0 0.0
2017-Nov-11 16:00N 35°29' E 139°42'0 0.0
2017-Nov-11 15:30N 35°29' E 139°42'0 0.0
2017-Nov-11 15:00N 35°29' E 139°42'0 0.0
2017-Nov-11 14:30N 35°29' E 139°42'0 0.0
2017-Nov-11 14:00N 35°29' E 139°42'0 0.0
2017-Nov-11 13:30N 35°29' E 139°42'0 0.0
2017-Nov-11 13:01N 35°29' E 139°42'0 0.0
2017-Nov-11 12:30N 35°29' E 139°42'0 0.0
2017-Nov-11 12:01N 35°29' E 139°42'0 0.0
2017-Nov-11 11:30N 35°29' E 139°42'0 0.0
2017-Nov-11 11:01N 35°29' E 139°42'0 0.0
2017-Nov-11 10:30N 35°29' E 139°42'0 0.0
2017-Nov-11 10:00N 35°29' E 139°42'0 0.0
2017-Nov-11 09:30N 35°29' E 139°42'0 0.0
2017-Nov-11 09:00N 35°29' E 139°42'0 0.0
2017-Nov-11 08:31N 35°29' E 139°42'0 0.0
2017-Nov-11 08:00N 35°29' E 139°42'0 0.0
2017-Nov-11 07:31N 35°29' E 139°42'0 0.0
2017-Nov-11 07:00N 35°29' E 139°42'0 0.0
2017-Nov-11 06:30N 35°29' E 139°42'0 0.0
2017-Nov-11 06:00N 35°29' E 139°42'0 0.0
2017-Nov-11 05:30N 35°29' E 139°42'0 0.0
2017-Nov-11 05:00N 35°29' E 139°42'0 0.0
2017-Nov-11 04:30N 35°29' E 139°42'0 0.0
2017-Nov-11 04:00N 35°29' E 139°42'0 0.0
2017-Nov-11 03:31N 35°29' E 139°42'0 0.0
2017-Nov-11 03:00N 35°29' E 139°42'0 0.0
2017-Nov-11 02:31N 35°29' E 139°42'0 0.0
2017-Nov-11 02:00N 35°29' E 139°42'0 0.0
2017-Nov-11 01:30N 35°29' E 139°42'0 0.0
2017-Nov-11 01:00N 35°29' E 139°42'0 0.0
2017-Nov-11 00:30N 35°29' E 139°42'0 0.0
2017-Nov-11 00:00N 35°29' E 139°42'0 0.0
2017-Nov-10 23:30N 35°29' E 139°42'0 0.0
2017-Nov-10 23:01N 35°29' E 139°42'0 0.0
2017-Nov-10 22:30N 35°29' E 139°42'0 0.0
2017-Nov-10 22:01N 35°29' E 139°42'0 0.0
2017-Nov-10 21:30N 35°29' E 139°42'0 0.0
2017-Nov-10 21:00N 35°29' E 139°42'0 0.0
2017-Nov-10 20:30N 35°29' E 139°42'0 0.0
2017-Nov-10 20:00N 35°29' E 139°42'0 0.0
2017-Nov-10 19:30N 35°29' E 139°42'0 0.0
2017-Nov-10 19:01N 35°29' E 139°42'0 0.0
2017-Nov-10 18:30N 35°29' E 139°42'0 0.0
2017-Nov-10 18:01N 35°29' E 139°42'0 0.0
2017-Nov-10 17:30N 35°29' E 139°42'0 0.0
2017-Nov-10 17:00N 35°29' E 139°42'0 0.0
2017-Nov-10 16:30N 35°29' E 139°42'0 0.0
2017-Nov-10 16:00N 35°29' E 139°42'0 0.0
2017-Nov-10 15:30N 35°29' E 139°42'0 0.0
2017-Nov-10 15:00N 35°29' E 139°42'0 0.0
2017-Nov-10 14:31N 35°29' E 139°42'0 0.0
2017-Nov-10 14:00N 35°29' E 139°42'0 0.0
2017-Nov-10 13:30N 35°29' E 139°42'0 0.0
2017-Nov-10 13:00N 35°29' E 139°42'0 0.0
2017-Nov-10 12:30N 35°29' E 139°42'0 0.0
2017-Nov-10 12:01N 35°29' E 139°42'0 0.0
2017-Nov-10 11:30N 35°29' E 139°42'0 0.0
2017-Nov-10 11:00N 35°29' E 139°42'0 0.0
2017-Nov-10 10:30N 35°29' E 139°42'0 0.0
2017-Nov-10 10:01N 35°29' E 139°42'0 0.0
2017-Nov-10 09:30N 35°29' E 139°42'0 0.0
2017-Nov-10 09:00N 35°29' E 139°42'0 0.0
2017-Nov-10 08:30N 35°29' E 139°42'0 0.0
2017-Nov-10 08:01N 35°29' E 139°42'0 0.0
2017-Nov-10 07:30N 35°29' E 139°42'2 4.2
2017-Nov-10 07:00N 35°27' E 139°43'4 8.3
2017-Nov-10 06:30N 35°24' E 139°40'1 2.9
2017-Nov-10 06:01N 35°25' E 139°38'0 0.0
2017-Nov-10 05:30N 35°25' E 139°38'0 0.0
2017-Nov-10 05:00N 35°25' E 139°38'0 0.0
2017-Nov-10 04:31N 35°25' E 139°38'0 0.7
2017-Nov-10 04:01N 35°25' E 139°39'2 4.3
2017-Nov-10 03:31N 35°23' E 139°40'0 0.0
2017-Nov-10 03:00N 35°23' E 139°40'3 5.5
2017-Nov-10 02:30N 35°25' E 139°42'4 8.3
2017-Nov-10 02:00N 35°29' E 139°40'0 0.0
2017-Nov-10 01:30N 35°29' E 139°40'0 0.0
2017-Nov-10 01:00N 35°29' E 139°40'0 0.0
2017-Nov-10 00:30N 35°29' E 139°40'0 0.0
2017-Nov-10 00:00N 35°29' E 139°40'0 0.0
2017-Nov-09 23:31N 35°29' E 139°40'3 6.6
2017-Nov-09 23:00N 35°26' E 139°43'510.8
2017-Nov-09 22:30N 35°21' E 139°43'611.7
2017-Nov-09 22:00N 35°16' E 139°46'  

Dump ship's entire track history